createdAt,value
2022-12-06T00:01:29.307Z,30.20
2022-12-06T00:03:58.928Z,27.80
2022-12-06T00:06:28.262Z,24.03
2022-12-06T00:08:56.582Z,21.97
2022-12-06T00:11:26.420Z,22.00
2022-12-06T00:13:59.173Z,61.37
2022-12-06T00:16:27.175Z,33.13
2022-12-06T00:18:54.547Z,15.57
2022-12-06T00:21:22.467Z,12.00
2022-12-06T00:23:51.998Z,10.47
2022-12-06T00:26:19.685Z,15.03
2022-12-06T00:28:46.750Z,9.90
2022-12-06T00:31:19.051Z,12.47
2022-12-06T00:33:45.979Z,10.87
2022-12-06T00:36:15.186Z,10.57
2022-12-06T00:38:42.364Z,8.77
2022-12-06T00:41:12.385Z,9.43
2022-12-06T00:43:39.706Z,13.13
2022-12-06T00:46:08.323Z,10.17
2022-12-06T00:48:35.773Z,10.17
2022-12-06T00:51:03.280Z,10.23
2022-12-06T00:53:30.155Z,9.33
2022-12-06T00:55:57.158Z,11.17
2022-12-06T00:58:24.675Z,11.37
2022-12-06T01:00:51.932Z,9.73
2022-12-06T01:03:19.641Z,9.87
2022-12-06T01:05:49.622Z,9.80
2022-12-06T01:08:17.601Z,12.07
2022-12-06T01:10:54.982Z,9.17
2022-12-06T01:13:21.832Z,11.20
2022-12-06T01:15:48.741Z,9.50
2022-12-06T01:18:15.832Z,8.40
2022-12-06T01:20:42.682Z,11.17
2022-12-06T01:23:09.429Z,13.90
2022-12-06T01:25:36.712Z,9.37
2022-12-06T01:28:04.340Z,10.23
2022-12-06T01:30:31.333Z,10.33
2022-12-06T01:32:58.227Z,9.97
2022-12-06T01:35:24.996Z,10.70
2022-12-06T01:37:51.723Z,12.20
2022-12-06T01:40:18.634Z,10.47
2022-12-06T01:42:45.340Z,9.60
2022-12-06T01:45:12.230Z,9.70
2022-12-06T01:47:42.668Z,10.73
2022-12-06T01:50:26.326Z,9.60
2022-12-06T01:53:06.717Z,9.53
2022-12-06T01:55:36.915Z,11.00
2022-12-06T01:58:36.606Z,8.37
2022-12-06T02:01:03.991Z,10.70
2022-12-06T02:03:33.449Z,9.77
2022-12-06T02:06:02.107Z,9.40
2022-12-06T02:08:29.473Z,10.10
2022-12-06T02:10:56.549Z,10.17
2022-12-06T02:13:24.768Z,15.53
2022-12-06T02:16:30.496Z,10.03
2022-12-06T02:19:10.453Z,9.80
2022-12-06T02:21:52.224Z,8.27
2022-12-06T02:24:49.674Z,9.17
2022-12-06T02:27:22.448Z,9.90
2022-12-06T02:30:11.201Z,10.60
2022-12-06T02:33:23.011Z,8.50
2022-12-06T02:36:03.646Z,8.30
2022-12-06T02:38:37.794Z,11.43
2022-12-06T02:41:14.678Z,8.00
2022-12-06T02:43:47.272Z,8.50
2022-12-06T02:46:17.839Z,10.33
2022-12-06T02:48:46.819Z,8.93
2022-12-06T02:51:17.043Z,9.87
2022-12-06T02:53:50.017Z,9.10
2022-12-06T02:56:18.511Z,8.20
2022-12-06T02:58:46.617Z,8.50
2022-12-06T03:01:17.964Z,9.17
2022-12-06T03:03:47.807Z,8.13
2022-12-06T03:06:51.914Z,12.33
2022-12-06T03:09:32.575Z,8.73
2022-12-06T03:12:31.550Z,11.27
2022-12-06T03:15:29.631Z,9.03
2022-12-06T03:17:59.240Z,10.03
2022-12-06T03:20:34.650Z,9.80
2022-12-06T03:23:07.109Z,8.03
2022-12-06T03:25:36.010Z,10.77
2022-12-06T03:28:05.468Z,8.27
2022-12-06T03:30:34.420Z,8.87
2022-12-06T03:33:02.163Z,7.57
2022-12-06T03:35:34.466Z,8.13
2022-12-06T03:38:27.753Z,8.40
2022-12-06T03:40:57.197Z,8.70
2022-12-06T03:43:24.267Z,8.30
2022-12-06T03:46:06.833Z,9.00
2022-12-06T03:48:48.420Z,8.20
2022-12-06T03:51:28.429Z,8.50
2022-12-06T03:53:59.532Z,8.23
2022-12-06T03:56:26.852Z,8.30
2022-12-06T03:58:53.606Z,8.17
2022-12-06T04:01:20.550Z,11.70
2022-12-06T04:03:48.574Z,10.90
2022-12-06T04:06:15.606Z,9.23
2022-12-06T04:08:42.464Z,7.80
2022-12-06T04:11:09.187Z,8.53
2022-12-06T04:13:36.043Z,7.37
2022-12-06T04:16:03.196Z,8.27
2022-12-06T04:18:30.129Z,9.10
2022-12-06T04:21:18.143Z,8.67
2022-12-06T04:23:52.585Z,8.70
2022-12-06T04:26:22.135Z,8.50
2022-12-06T04:29:08.736Z,10.57
2022-12-06T04:31:54.787Z,9.73
2022-12-06T04:34:40.008Z,8.63
2022-12-06T04:37:25.561Z,8.90
2022-12-06T04:39:52.501Z,9.50
2022-12-06T04:42:38.619Z,9.93
2022-12-06T04:45:06.611Z,8.60
2022-12-06T04:47:33.371Z,9.07
2022-12-06T04:50:00.870Z,8.47
2022-12-06T04:52:32.667Z,9.60
2022-12-06T04:55:02.201Z,8.50
2022-12-06T04:57:28.977Z,8.17
2022-12-06T04:59:55.711Z,10.33
2022-12-06T05:02:22.485Z,8.57
2022-12-06T05:04:49.319Z,8.43
2022-12-06T05:07:16.120Z,9.30
2022-12-06T05:09:42.964Z,8.87
2022-12-06T05:12:09.773Z,10.90
2022-12-06T05:14:36.621Z,9.10
2022-12-06T05:17:03.772Z,8.93
2022-12-06T05:19:31.292Z,11.60
2022-12-06T05:21:57.993Z,9.60
2022-12-06T05:24:25.358Z,10.00
2022-12-06T05:26:52.116Z,9.03
2022-12-06T05:29:20.141Z,7.70
2022-12-06T05:31:48.443Z,11.47
2022-12-06T05:34:15.318Z,15.03
2022-12-06T05:36:44.862Z,9.17
2022-12-06T05:39:11.910Z,8.40
2022-12-06T05:41:38.715Z,11.20
2022-12-06T05:44:05.605Z,9.33
2022-12-06T05:46:34.956Z,12.43
2022-12-06T05:49:01.707Z,11.50
2022-12-06T05:51:28.444Z,8.97
2022-12-06T05:53:55.220Z,10.93
2022-12-06T05:56:22.066Z,9.53
2022-12-06T05:58:48.813Z,12.90
2022-12-06T06:01:15.675Z,10.97
2022-12-06T06:03:47.230Z,7.17
2022-12-06T06:06:15.290Z,9.20
2022-12-06T06:08:42.315Z,13.43
2022-12-06T06:11:09.115Z,7.47
2022-12-06T06:13:35.879Z,10.73
2022-12-06T06:16:02.657Z,10.13
2022-12-06T06:18:29.716Z,9.30
2022-12-06T06:20:59.172Z,9.67
2022-12-06T06:23:27.738Z,8.30
2022-12-06T06:25:54.901Z,11.93
2022-12-06T06:28:22.196Z,8.10
2022-12-06T06:30:49.422Z,9.23
2022-12-06T06:33:16.575Z,8.47
2022-12-06T06:35:43.614Z,7.70
2022-12-06T06:38:10.403Z,8.63
2022-12-06T06:40:37.716Z,13.33
2022-12-06T06:43:20.527Z,8.80
2022-12-06T06:46:02.407Z,7.73
2022-12-06T06:48:32.717Z,9.57
2022-12-06T06:51:07.631Z,7.30
2022-12-06T06:53:34.780Z,11.73
2022-12-06T06:56:01.726Z,7.47
2022-12-06T06:58:29.145Z,7.40
2022-12-06T07:00:57.993Z,5.77
2022-12-06T07:03:25.354Z,7.27
2022-12-06T07:05:53.207Z,8.43
2022-12-06T07:08:20.456Z,7.97
2022-12-06T07:10:50.381Z,7.57
2022-12-06T07:13:22.388Z,7.30
2022-12-06T07:15:49.635Z,6.47
2022-12-06T07:18:17.586Z,7.30
2022-12-06T07:20:48.277Z,9.80
2022-12-06T07:23:15.658Z,7.17
2022-12-06T07:25:42.665Z,6.43
2022-12-06T07:28:09.539Z,8.10
2022-12-06T07:30:36.411Z,7.40
2022-12-06T07:33:03.395Z,7.53
2022-12-06T07:38:19.120Z,7.97
2022-12-06T07:41:04.019Z,7.30
2022-12-06T07:43:50.327Z,6.67
2022-12-06T07:46:17.427Z,8.17
2022-12-06T07:48:44.283Z,6.53
2022-12-06T07:51:11.235Z,7.23
2022-12-06T07:53:38.003Z,8.97
2022-12-06T07:56:08.836Z,14.53
2022-12-06T07:58:35.670Z,19.33
2022-12-06T08:01:05.793Z,19.37
2022-12-06T08:03:32.708Z,12.47
2022-12-06T08:05:59.721Z,11.37
2022-12-06T08:08:28.874Z,7.67
2022-12-06T08:11:00.044Z,9.50
2022-12-06T08:13:27.580Z,11.20
2022-12-06T08:15:54.976Z,9.53
2022-12-06T08:18:22.117Z,6.60
2022-12-06T08:20:48.918Z,6.67
2022-12-06T08:23:17.766Z,6.70
2022-12-06T08:25:45.395Z,6.57
2022-12-06T08:28:12.122Z,8.13
2022-12-06T08:30:42.096Z,5.87
2022-12-06T08:33:08.908Z,7.17
2022-12-06T08:35:38.574Z,22.20
2022-12-06T08:38:05.524Z,10.67
2022-12-06T08:40:32.387Z,11.43
2022-12-06T08:42:59.221Z,7.60
2022-12-06T08:45:26.239Z,12.70
2022-12-06T08:47:53.112Z,9.43
2022-12-06T08:50:19.911Z,7.97
2022-12-06T08:52:46.663Z,7.63
2022-12-06T08:55:13.510Z,7.00
2022-12-06T08:57:40.325Z,6.90
2022-12-06T09:00:09.367Z,6.73
2022-12-06T09:02:38.336Z,6.20
2022-12-06T09:05:05.566Z,8.57
2022-12-06T09:07:32.716Z,6.00
2022-12-06T09:10:00.165Z,7.23
2022-12-06T09:12:27.401Z,6.03
2022-12-06T09:14:54.204Z,8.57
2022-12-06T09:17:21.103Z,6.00
2022-12-06T09:19:48.027Z,7.03
2022-12-06T09:22:14.767Z,6.27
2022-12-06T09:24:41.513Z,6.70
2022-12-06T09:27:08.416Z,6.57
2022-12-06T09:29:40.301Z,10.03
2022-12-06T09:32:07.837Z,5.67
2022-12-06T09:34:34.590Z,6.80
2022-12-06T09:37:12.302Z,6.80
2022-12-06T09:39:44.166Z,6.17
2022-12-06T09:42:31.962Z,6.63
2022-12-06T09:45:26.002Z,8.43
2022-12-06T09:48:20.512Z,7.27
2022-12-06T09:51:31.296Z,6.60
2022-12-06T09:54:07.499Z,8.50
2022-12-06T09:56:57.517Z,6.37
2022-12-06T10:00:09.702Z,6.10
2022-12-06T10:03:03.296Z,6.73
2022-12-06T10:05:42.190Z,7.83
2022-12-06T10:08:14.727Z,6.70
2022-12-06T10:11:08.442Z,7.97
2022-12-06T10:14:02.722Z,7.67
2022-12-06T10:16:55.122Z,6.83
2022-12-06T10:19:30.767Z,6.27
2022-12-06T10:22:39.078Z,6.47
2022-12-06T10:25:24.914Z,8.00
2022-12-06T10:27:57.907Z,7.73
2022-12-06T10:30:25.020Z,6.77
2022-12-06T10:32:53.557Z,11.30
2022-12-06T10:35:35.565Z,8.80
2022-12-06T10:38:17.153Z,7.40
2022-12-06T10:41:00.162Z,5.70
2022-12-06T10:44:11.654Z,6.13
2022-12-06T10:47:19.250Z,6.03
2022-12-06T10:50:04.034Z,7.10
2022-12-06T10:52:44.198Z,6.67
2022-12-06T10:55:11.420Z,7.53
2022-12-06T10:58:14.303Z,6.73
2022-12-06T11:01:05.333Z,5.90
2022-12-06T11:03:54.679Z,6.63
2022-12-06T11:06:54.710Z,6.30
2022-12-06T11:09:42.134Z,6.13
2022-12-06T11:12:38.674Z,7.23
2022-12-06T11:15:20.609Z,7.60
2022-12-06T11:18:11.028Z,7.33
2022-12-06T11:20:52.884Z,9.43
2022-12-06T11:23:30.453Z,8.20
2022-12-06T11:26:23.428Z,8.33
2022-12-06T11:29:06.568Z,10.47
2022-12-06T11:31:42.743Z,12.77
2022-12-06T11:34:36.493Z,8.87
2022-12-06T11:37:04.378Z,9.10
2022-12-06T11:39:33.546Z,9.13
2022-12-06T11:42:03.809Z,10.27
2022-12-06T11:45:04.058Z,9.10
2022-12-06T11:47:31.036Z,11.40
2022-12-06T11:50:02.762Z,10.03
2022-12-06T11:52:40.939Z,10.17
2022-12-06T11:55:15.973Z,9.77
2022-12-06T11:57:52.066Z,9.73
2022-12-06T12:00:26.227Z,12.60
2022-12-06T12:02:56.126Z,15.17
2022-12-06T12:05:36.219Z,9.27
2022-12-06T12:08:16.181Z,11.63
2022-12-06T12:10:44.975Z,12.07
2022-12-06T12:13:38.912Z,12.93
2022-12-06T12:16:23.146Z,13.37
2022-12-06T12:18:54.782Z,13.27
2022-12-06T12:21:41.236Z,13.77
2022-12-06T12:25:17.334Z,15.37
2022-12-06T12:27:39.860Z,15.00
2022-12-06T12:30:51.204Z,12.93
2022-12-06T12:33:20.438Z,14.17
2022-12-06T12:36:14.974Z,13.90
2022-12-06T12:38:43.514Z,17.17
2022-12-06T12:41:37.738Z,14.67
2022-12-06T12:44:36.335Z,15.00
2022-12-06T12:47:04.485Z,14.27
2022-12-06T12:49:34.651Z,10.13
2022-12-06T12:52:21.192Z,9.77
2022-12-06T12:55:13.751Z,10.30
2022-12-06T12:57:41.987Z,10.67
2022-12-06T13:00:21.887Z,10.63
2022-12-06T13:03:14.197Z,8.57
2022-12-06T13:05:51.872Z,8.83
2022-12-06T13:08:25.117Z,8.33
2022-12-06T13:10:59.100Z,8.67
2022-12-06T13:13:44.507Z,7.23
2022-12-06T13:16:15.274Z,6.13
2022-12-06T13:18:46.822Z,7.97
2022-12-06T13:21:24.095Z,6.43
2022-12-06T13:23:54.334Z,5.20
2022-12-06T13:26:27.386Z,4.60
2022-12-06T13:28:59.798Z,4.50
2022-12-06T13:31:35.648Z,4.17
2022-12-06T13:34:33.309Z,4.03
2022-12-06T13:37:03.993Z,3.93
2022-12-06T13:39:31.972Z,5.27
2022-12-06T13:42:17.958Z,4.23
2022-12-06T13:44:52.491Z,3.47
2022-12-06T13:47:28.357Z,3.77
2022-12-06T13:50:19.261Z,3.40
2022-12-06T13:52:45.980Z,4.50
2022-12-06T13:55:38.730Z,3.77
2022-12-06T13:58:05.404Z,3.60
2022-12-06T14:00:32.548Z,4.33
2022-12-06T14:03:16.094Z,3.63
2022-12-06T14:06:07.475Z,5.17
2022-12-06T14:08:46.335Z,5.30
2022-12-06T14:11:15.971Z,5.53
2022-12-06T14:13:46.156Z,6.17
2022-12-06T14:16:28.037Z,5.03
2022-12-06T14:18:55.211Z,5.77
2022-12-06T14:21:44.464Z,5.90
2022-12-06T14:24:25.588Z,4.87
2022-12-06T14:26:52.386Z,5.13
2022-12-06T14:29:24.456Z,4.43
2022-12-06T14:31:52.006Z,5.40
2022-12-06T14:34:30.300Z,5.50
2022-12-06T14:36:59.151Z,6.27
2022-12-06T14:39:29.391Z,5.17
2022-12-06T14:42:36.481Z,7.43
2022-12-06T14:45:14.906Z,8.97
2022-12-06T14:47:46.940Z,7.73
2022-12-06T14:50:24.039Z,6.43
2022-12-06T14:53:12.089Z,5.20
2022-12-06T14:55:53.956Z,5.53
2022-12-06T14:58:25.462Z,5.10
2022-12-06T15:01:01.744Z,5.20
2022-12-06T15:03:36.517Z,5.00
2022-12-06T15:06:21.463Z,5.73
2022-12-06T15:08:57.395Z,4.63
2022-12-06T15:11:48.442Z,6.67
2022-12-06T15:14:24.641Z,4.93
2022-12-06T15:17:02.293Z,5.47
2022-12-06T15:19:33.913Z,5.30
2022-12-06T15:22:01.008Z,6.67
2022-12-06T15:24:29.016Z,5.03
2022-12-06T15:26:56.351Z,5.43
2022-12-06T15:29:23.598Z,7.70
2022-12-06T15:31:53.071Z,5.33
2022-12-06T15:34:27.679Z,7.63
2022-12-06T15:37:22.328Z,5.20
2022-12-06T15:39:44.232Z,5.93
2022-12-06T15:42:22.379Z,5.83
2022-12-06T15:44:50.755Z,5.97
2022-12-06T15:47:19.994Z,5.67
2022-12-06T15:49:47.398Z,6.83
2022-12-06T15:52:19.597Z,6.80
2022-12-06T15:54:46.703Z,5.67
2022-12-06T15:57:13.557Z,6.23
2022-12-06T15:59:40.380Z,6.40
2022-12-06T16:02:16.091Z,5.33
2022-12-06T16:04:44.582Z,6.23
2022-12-06T16:07:13.384Z,7.10
2022-12-06T16:09:40.268Z,8.17
2022-12-06T16:12:07.306Z,6.00
2022-12-06T16:14:34.050Z,5.50
2022-12-06T16:17:00.878Z,5.77
2022-12-06T16:19:47.589Z,8.27
2022-12-06T16:22:14.468Z,7.90
2022-12-06T16:24:41.295Z,6.63
2022-12-06T16:27:08.696Z,7.23
2022-12-06T16:29:35.501Z,7.00
2022-12-06T16:32:02.428Z,6.73
2022-12-06T16:34:30.219Z,7.30
2022-12-06T16:37:02.829Z,6.67
2022-12-06T16:39:31.914Z,7.07
2022-12-06T16:41:58.806Z,8.73
2022-12-06T16:44:25.661Z,7.27
2022-12-06T16:46:52.605Z,7.90
2022-12-06T16:52:09.756Z,7.73
2022-12-06T16:54:39.066Z,7.83
2022-12-06T16:57:05.809Z,7.37
2022-12-06T16:59:32.626Z,8.03
2022-12-06T17:01:59.621Z,9.17
2022-12-06T17:04:26.798Z,8.13
2022-12-06T17:06:53.562Z,9.23
2022-12-06T17:09:20.346Z,8.60
2022-12-06T17:12:07.226Z,9.23
2022-12-06T17:14:36.090Z,7.63
2022-12-06T17:17:04.156Z,7.93
2022-12-06T17:19:33.257Z,7.77
2022-12-06T17:22:06.172Z,8.73
2022-12-06T17:24:33.471Z,9.13
2022-12-06T17:27:00.377Z,9.43
2022-12-06T17:29:28.506Z,8.77
2022-12-06T17:31:56.270Z,8.17
2022-12-06T17:34:25.729Z,8.20
2022-12-06T17:36:53.237Z,10.07
2022-12-06T17:39:21.142Z,8.63
2022-12-06T17:42:06.362Z,7.60
2022-12-06T17:44:34.259Z,8.87
2022-12-06T17:47:01.867Z,8.40
2022-12-06T17:49:29.211Z,9.10
2022-12-06T17:51:56.980Z,8.60
2022-12-06T17:54:24.463Z,8.43
2022-12-06T17:56:54.009Z,8.03
2022-12-06T17:59:23.812Z,9.00
2022-12-06T18:02:14.060Z,9.30
2022-12-06T18:04:38.757Z,10.10
2022-12-06T18:07:05.584Z,8.63
2022-12-06T18:09:32.323Z,8.93
2022-12-06T18:12:01.139Z,8.27
2022-12-06T18:14:28.282Z,9.87
2022-12-06T18:16:55.751Z,8.97
2022-12-06T18:19:22.984Z,7.80
2022-12-06T18:21:52.208Z,8.57
2022-12-06T18:24:22.727Z,8.80
2022-12-06T18:26:50.996Z,8.30
2022-12-06T18:29:20.547Z,7.40
2022-12-06T18:31:47.544Z,7.20
2022-12-06T18:34:14.801Z,7.60
2022-12-06T18:36:42.250Z,7.93
2022-12-06T18:39:14.963Z,8.57
2022-12-06T18:41:43.923Z,8.17
2022-12-06T18:44:11.184Z,8.17
2022-12-06T18:46:39.052Z,7.67
2022-12-06T18:49:06.691Z,7.60
2022-12-06T18:51:35.434Z,6.53
2022-12-06T18:54:05.137Z,7.70
2022-12-06T18:56:33.404Z,8.17
2022-12-06T18:59:05.872Z,6.97
2022-12-06T19:01:36.112Z,8.07
2022-12-06T19:04:05.121Z,6.97
2022-12-06T19:06:34.334Z,6.67
2022-12-06T19:09:06.762Z,7.40
2022-12-06T19:11:37.405Z,6.97
2022-12-06T19:14:04.442Z,9.47
2022-12-06T19:16:43.088Z,10.60
2022-12-06T19:19:22.567Z,7.00
2022-12-06T19:21:50.946Z,8.33
2022-12-06T19:24:21.534Z,10.77
2022-12-06T19:26:50.281Z,11.33
2022-12-06T19:29:17.119Z,7.27
2022-12-06T19:31:44.546Z,8.57
2022-12-06T19:34:19.908Z,7.40
2022-12-06T19:36:49.118Z,6.40
2022-12-06T19:39:16.301Z,7.77
2022-12-06T19:42:01.906Z,6.23
2022-12-06T19:44:29.559Z,6.27
2022-12-06T19:46:57.162Z,6.73
2022-12-06T19:49:25.687Z,7.37
2022-12-06T19:51:52.832Z,8.17
2022-12-06T19:54:25.514Z,7.40
2022-12-06T19:56:54.928Z,8.27
2022-12-06T19:59:35.222Z,7.43
2022-12-06T20:02:02.752Z,7.20
2022-12-06T20:04:34.509Z,7.40
2022-12-06T20:07:01.438Z,7.00
2022-12-06T20:09:30.929Z,7.03
2022-12-06T20:12:02.425Z,9.67
2022-12-06T20:14:36.935Z,7.53
2022-12-06T20:17:06.212Z,7.67
2022-12-06T20:19:33.865Z,6.73
2022-12-06T20:22:00.964Z,7.20
2022-12-06T20:24:27.737Z,6.50
2022-12-06T20:26:54.896Z,7.30
2022-12-06T20:29:22.564Z,9.80
2022-12-06T20:31:51.355Z,9.57
2022-12-06T20:34:19.933Z,8.97
2022-12-06T20:36:47.298Z,9.00
2022-12-06T20:39:23.609Z,9.03
2022-12-06T20:41:50.863Z,8.77
2022-12-06T20:44:18.532Z,7.67
2022-12-06T20:46:45.790Z,8.00
2022-12-06T20:49:12.988Z,12.27
2022-12-06T20:51:40.193Z,7.20
2022-12-06T20:54:08.010Z,7.57
2022-12-06T20:56:37.963Z,7.63
2022-12-06T20:59:06.559Z,9.63
2022-12-06T21:01:36.934Z,7.57
2022-12-06T21:04:03.817Z,7.33
2022-12-06T21:06:30.748Z,7.20
2022-12-06T21:08:57.542Z,7.87
2022-12-06T21:11:25.248Z,7.10
2022-12-06T21:13:57.272Z,6.90
2022-12-06T21:16:31.533Z,6.60
2022-12-06T21:19:04.682Z,8.17
2022-12-06T21:21:34.760Z,6.77
2022-12-06T21:24:04.044Z,6.73
2022-12-06T21:26:31.455Z,6.90
2022-12-06T21:28:58.549Z,6.30
2022-12-06T21:31:30.157Z,6.57
2022-12-06T21:33:57.619Z,6.33
2022-12-06T21:36:25.083Z,6.63
2022-12-06T21:38:52.306Z,6.33
2022-12-06T21:41:19.328Z,6.90
2022-12-06T21:43:46.198Z,7.30
2022-12-06T21:46:21.305Z,7.30
2022-12-06T21:48:52.749Z,7.90
2022-12-06T21:51:20.444Z,8.27
2022-12-06T21:53:47.714Z,7.30
2022-12-06T21:56:19.995Z,8.20
2022-12-06T21:58:47.994Z,11.27
2022-12-06T22:01:20.960Z,7.30
2022-12-06T22:03:49.687Z,8.93
2022-12-06T22:06:16.586Z,7.70
2022-12-06T22:08:45.163Z,8.23
2022-12-06T22:11:15.030Z,9.53
2022-12-06T22:13:42.174Z,10.10
2022-12-06T22:16:10.753Z,8.47
2022-12-06T22:18:44.367Z,6.23
2022-12-06T22:21:16.385Z,7.30
2022-12-06T22:23:43.580Z,7.50
2022-12-06T22:26:14.301Z,6.67
2022-12-06T22:28:41.172Z,7.27
2022-12-06T22:31:19.778Z,8.77
2022-12-06T22:33:48.050Z,7.83
2022-12-06T22:36:15.853Z,9.07
2022-12-06T22:38:43.084Z,8.93
2022-12-06T22:41:10.370Z,6.77
2022-12-06T22:43:37.925Z,7.20
2022-12-06T22:46:10.550Z,5.50
2022-12-06T22:48:38.643Z,6.20
2022-12-06T22:51:15.495Z,6.27
2022-12-06T22:53:44.832Z,5.60
2022-12-06T22:56:12.488Z,5.80
2022-12-06T22:58:39.698Z,6.90
2022-12-06T23:01:17.050Z,5.80
2022-12-06T23:03:46.230Z,6.50
2022-12-06T23:06:14.335Z,5.67
2022-12-06T23:08:41.477Z,5.60
2022-12-06T23:11:17.102Z,5.23
2022-12-06T23:13:44.214Z,6.03
2022-12-06T23:16:14.026Z,5.97
2022-12-06T23:18:41.472Z,5.20
2022-12-06T23:21:18.826Z,5.30
2022-12-06T23:23:48.829Z,5.40
2022-12-06T23:26:19.191Z,6.33
2022-12-06T23:28:46.613Z,6.13
2022-12-06T23:31:16.165Z,5.83
2022-12-06T23:33:44.372Z,8.10
2022-12-06T23:36:12.583Z,5.77
2022-12-06T23:38:39.663Z,5.73
2022-12-06T23:41:12.079Z,5.30
2022-12-06T23:43:39.756Z,5.23
2022-12-06T23:46:08.237Z,7.53
2022-12-06T23:48:36.061Z,5.83
2022-12-06T23:51:17.168Z,5.97
2022-12-06T23:53:45.259Z,4.47
2022-12-06T23:56:19.963Z,5.50
2022-12-06T23:58:48.085Z,5.97
